Wind From: 11-12-2017 12:03 Until: 12-12-2017 06:00 warning for: Wind Level: Orange info button

Power and phone distribution networks may be disrupted for relatively long periods., Roofs and chimneys can be damaged. , Tree branches may break. , Vehicles can be deported. , Traffic may be disrupted, particularly on secondary roads in forest areas. Limit your trips. , Limit your speed in highway driving, especially if you drive a vehicle or hitch sensitive to wind. , Do not go for walks in forests or along the coast., In town, be vigilant against possible falling objects., Do not work on roofs and do not touch any electrical line fallen on the ground., Store or secure sensitive objects to wind or likely to be damaged., Always install power generators outside buildings. 


Meteo18 Weather Cam more information Meteo18 Weather Cam


Thunder radar more information blitzortung!


Rain radar more information rain snow radar


Visit our other weather sites:

Template documentation
and downloads

And another site



Weather Underground History page Text

Daily Summary for April 30, 2017 Units:  Metric    English   Both
« Previous Day
Next Day »
Daily Weekly Monthly Yearly Custom
  High: Low: Average:
Temperature: 18.3 °C 4.7 °C 10.8 °C
Dew Point: 9.6 °C 0.6 °C 4.7 °C
Humidity: 94 % 43 % 68 %
Wind Speed: 35.4 km/h 0.0 km/h 6.3 km/h
Wind Gust: 57.9 km/h - -
Wind:- - SSE
Pressure: 1010.4 hPa 1000.6 hPa -
Precipitation: 15.0 mm    
Historical Graphs
 
 
Tabular Data for April 30, 2017
Time Temperature Dew Point Pressure Wind Wind Speed Wind Gust Humidity Rainfall Rate (Hourly)
00:02 9.4 °C 2.0 °C 1010.4 hPa NE 1.6 km/h 4.8 km/h 60 % 0.0 mm
00:07 9.4 °C 2.0 °C 1010.4 hPa NE 1.6 km/h 6.4 km/h 60 % 0.0 mm
00:12 9.3 °C 1.9 °C 1010.4 hPa NE 1.6 km/h 6.4 km/h 60 % 0.0 mm
00:17 9.3 °C 1.9 °C 1010.4 hPa NE 3.2 km/h 6.4 km/h 60 % 0.0 mm
00:22 9.4 °C 2.0 °C 1010.4 hPa NE 3.2 km/h 6.4 km/h 60 % 0.0 mm
00:27 9.4 °C 1.8 °C 1010.4 hPa NE 1.6 km/h 4.8 km/h 59 % 0.0 mm
00:32 9.3 °C 1.9 °C 1010.4 hPa NE 3.2 km/h 4.8 km/h 60 % 0.0 mm
00:42 9.2 °C 1.8 °C 1010.4 hPa NNE 3.2 km/h 4.8 km/h 60 % 0.0 mm
00:47 9.1 °C 1.7 °C 1010.0 hPa NE 3.2 km/h 4.8 km/h 60 % 0.0 mm
00:52 9.1 °C 2.0 °C 1010.0 hPa North 1.6 km/h 4.8 km/h 61 % 0.0 mm
00:57 8.6 °C 1.7 °C 1010.0 hPa WNW 1.6 km/h 4.8 km/h 62 % 0.0 mm
01:02 8.1 °C 1.9 °C 1010.0 hPa Calm   4.8 km/h 65 % 0.0 mm
01:07 8.0 °C 1.8 °C 1010.0 hPa NNW 1.6 km/h 4.8 km/h 65 % 0.0 mm
01:12 8.3 °C 1.9 °C 1010.0 hPa North 1.6 km/h 4.8 km/h 64 % 0.0 mm
01:17 8.3 °C 1.7 °C 1010.0 hPa Calm   3.2 km/h 63 % 0.0 mm
01:22 7.7 °C 1.7 °C 1010.0 hPa WNW 1.6 km/h 3.2 km/h 66 % 0.0 mm
01:27 7.6 °C 1.9 °C 1010.0 hPa Calm   3.2 km/h 67 % 0.0 mm
01:32 8.2 °C 2.0 °C 1010.0 hPa Calm   3.2 km/h 65 % 0.0 mm
01:37 8.2 °C 1.8 °C 1010.0 hPa Calm   3.2 km/h 64 % 0.0 mm
01:42 8.2 °C 2.0 °C 1010.0 hPa Calm   3.2 km/h 65 % 0.0 mm
01:47 8.1 °C 1.9 °C 1010.0 hPa Calm   1.6 km/h 65 % 0.0 mm
01:52 8.4 °C 2.2 °C 1009.7 hPa Calm   1.6 km/h 65 % 0.0 mm
02:02 8.5 °C 1.9 °C 1009.7 hPa Calm   1.6 km/h 63 % 0.0 mm
02:12 7.9 °C 1.7 °C 1009.7 hPa Calm   1.6 km/h 65 % 0.0 mm
02:17 7.6 °C 1.9 °C 1009.7 hPa Calm     67 % 0.0 mm
02:22 7.9 °C 2.2 °C 1009.7 hPa Calm   3.2 km/h 67 % 0.0 mm
02:32 8.3 °C 1.9 °C 1009.7 hPa SSW 1.6 km/h 3.2 km/h 64 % 0.0 mm
02:42 7.9 °C 1.9 °C 1009.7 hPa Calm   4.8 km/h 66 % 0.0 mm
02:47 8.0 °C 1.8 °C 1009.7 hPa Calm   1.6 km/h 65 % 0.0 mm
02:52 7.9 °C 1.9 °C 1009.7 hPa Calm   3.2 km/h 66 % 0.0 mm
02:57 7.7 °C 1.7 °C 1009.7 hPa Calm   3.2 km/h 66 % 0.0 mm
03:02 7.6 °C 1.9 °C 1009.4 hPa Calm   3.2 km/h 67 % 0.0 mm
03:12 7.6 °C 1.9 °C 1009.4 hPa Calm   1.6 km/h 67 % 0.0 mm
03:17 7.6 °C 2.1 °C 1009.4 hPa Calm   1.6 km/h 68 % 0.0 mm
03:22 7.7 °C 2.0 °C 1009.4 hPa Calm   1.6 km/h 67 % 0.0 mm
03:32 7.6 °C 1.9 °C 1009.4 hPa Calm   1.6 km/h 67 % 0.0 mm
03:37 7.2 °C 1.7 °C 1009.4 hPa Calm   1.6 km/h 68 % 0.0 mm
03:42 7.0 °C 1.7 °C 1009.4 hPa Calm   1.6 km/h 69 % 0.0 mm
03:47 6.9 °C 1.8 °C 1009.4 hPa Calm   1.6 km/h 70 % 0.0 mm
03:52 6.8 °C 1.7 °C 1009.4 hPa Calm   1.6 km/h 70 % 0.0 mm
03:57 6.9 °C 1.8 °C 1009.4 hPa Calm   1.6 km/h 70 % 0.0 mm
04:02 6.9 °C 1.8 °C 1009.4 hPa Calm   1.6 km/h 70 % 0.0 mm
04:12 6.1 °C 1.8 °C 1009.4 hPa Calm   1.6 km/h 74 % 0.0 mm
04:17 6.1 °C 2.0 °C 1009.4 hPa Calm   3.2 km/h 75 % 0.0 mm
04:22 6.4 °C 1.9 °C 1009.4 hPa Calm   3.2 km/h 73 % 0.0 mm
04:32 6.6 °C 1.9 °C 1009.4 hPa Calm   1.6 km/h 72 % 0.0 mm
04:42 6.4 °C 1.7 °C 1009.4 hPa Calm     72 % 0.0 mm
04:52 6.1 °C 1.6 °C 1009.4 hPa Calm   1.6 km/h 73 % 0.0 mm
04:57 6.4 °C 1.5 °C 1009.0 hPa Calm   1.6 km/h 71 % 0.0 mm
05:02 6.6 °C 1.5 °C 1009.0 hPa North 1.6 km/h 1.6 km/h 70 % 0.0 mm
05:12 6.8 °C 1.5 °C 1008.7 hPa Calm   3.2 km/h 69 % 0.0 mm
05:17 6.5 °C 1.4 °C 1008.7 hPa Calm   3.2 km/h 70 % 0.0 mm
05:22 6.2 °C 1.3 °C 1008.7 hPa North 1.6 km/h 1.6 km/h 71 % 0.0 mm
05:27 6.2 °C 1.5 °C 1008.7 hPa Calm   1.6 km/h 72 % 0.0 mm
05:32 6.1 °C 1.4 °C 1008.7 hPa Calm   1.6 km/h 72 % 0.0 mm
05:37 6.0 °C 1.3 °C 1008.7 hPa NW 1.6 km/h 1.6 km/h 72 % 0.0 mm
05:42 5.7 °C 1.2 °C 1008.7 hPa WNW 1.6 km/h   73 % 0.0 mm
05:47 5.7 °C 1.2 °C 1008.7 hPa Calm     73 % 0.0 mm
05:52 6.1 °C 1.2 °C 1008.4 hPa Calm   3.2 km/h 71 % 0.0 mm
05:57 6.1 °C 1.2 °C 1008.4 hPa Calm   3.2 km/h 71 % 0.0 mm
06:02 6.2 °C 1.1 °C 1008.4 hPa NNW 1.6 km/h 1.6 km/h 70 % 0.0 mm
06:12 6.4 °C 1.1 °C 1008.4 hPa North 1.6 km/h 1.6 km/h 69 % 0.0 mm
06:17 6.3 °C 1.0 °C 1008.4 hPa North 3.2 km/h 3.2 km/h 69 % 0.0 mm
06:22 6.3 °C 0.8 °C 1008.4 hPa North 3.2 km/h 3.2 km/h 68 % 0.0 mm
06:32 5.5 °C 0.7 °C 1008.4 hPa Calm   3.2 km/h 71 % 0.0 mm
06:37 5.3 °C 0.7 °C 1008.4 hPa Calm   3.2 km/h 72 % 0.0 mm
06:42 5.2 °C 0.8 °C 1008.0 hPa Calm   3.2 km/h 73 % 0.0 mm
06:47 5.4 °C 0.8 °C 1008.0 hPa Calm   3.2 km/h 72 % 0.0 mm
06:52 5.5 °C 0.7 °C 1008.0 hPa Calm   3.2 km/h 71 % 0.0 mm
07:02 4.7 °C 0.6 °C 1008.0 hPa Calm     75 % 0.0 mm
07:12 4.8 °C 0.9 °C 1008.0 hPa Calm     76 % 0.0 mm
07:17 5.4 °C 0.9 °C 1007.7 hPa Calm     73 % 0.0 mm
07:22 5.9 °C 0.8 °C 1007.7 hPa Calm     70 % 0.0 mm
07:27 6.1 °C 0.8 °C 1007.7 hPa Calm     69 % 0.0 mm
07:32 6.3 °C 1.0 °C 1007.7 hPa Calm     69 % 0.0 mm
07:42 6.8 °C 1.1 °C 1007.7 hPa Calm     67 % 0.0 mm
07:47 7.3 °C 1.2 °C 1007.7 hPa Calm     65 % 0.0 mm
07:52 7.9 °C 1.5 °C 1007.7 hPa Calm     64 % 0.0 mm
07:57 8.4 °C 1.5 °C 1007.3 hPa Calm     62 % 0.0 mm
08:02 9.0 °C 1.9 °C 1007.7 hPa Calm     61 % 0.0 mm
08:12 9.1 °C 1.7 °C 1007.7 hPa Calm   4.8 km/h 60 % 0.0 mm
08:17 9.1 °C 1.7 °C 1007.7 hPa SE 1.6 km/h 4.8 km/h 60 % 0.0 mm
08:22 9.2 °C 2.1 °C 1007.3 hPa Calm   4.8 km/h 61 % 0.0 mm
08:32 9.9 °C 2.0 °C 1007.3 hPa Calm   3.2 km/h 58 % 0.0 mm
08:42 10.7 °C 1.8 °C 1007.3 hPa Calm     54 % 0.0 mm
08:47 10.7 °C 1.8 °C 1007.3 hPa SSE 4.8 km/h   54 % 0.0 mm
08:52 10.6 °C 1.7 °C 1007.3 hPa SE 4.8 km/h 9.7 km/h 54 % 0.0 mm
08:57 10.7 °C 2.0 °C 1007.3 hPa SE 3.2 km/h 9.7 km/h 55 % 0.0 mm
09:02 10.8 °C 1.6 °C 1007.0 hPa SE 6.4 km/h 12.9 km/h 53 % 0.0 mm
09:12 11.1 °C 1.3 °C 1007.0 hPa East 3.2 km/h 17.7 km/h 51 % 0.0 mm
09:17 11.4 °C 1.6 °C 1007.0 hPa SE 6.4 km/h 17.7 km/h 51 % 0.0 mm
09:22 11.6 °C 1.2 °C 1007.0 hPa East 8.0 km/h 17.7 km/h 49 % 0.0 mm
09:32 11.9 °C 1.5 °C 1006.7 hPa SSE 8.0 km/h 19.3 km/h 49 % 0.0 mm
09:42 12.3 °C 1.6 °C 1006.7 hPa South 6.4 km/h 19.3 km/h 48 % 0.0 mm
09:52 12.7 °C 1.7 °C 1006.7 hPa WSW 3.2 km/h 22.5 km/h 47 % 0.0 mm
09:57 12.9 °C 1.9 °C 1006.3 hPa SE 1.6 km/h 22.5 km/h 47 % 0.0 mm
10:02 13.2 °C 1.8 °C 1006.3 hPa East 11.3 km/h 22.5 km/h 46 % 0.0 mm
10:12 13.5 °C 2.1 °C 1006.3 hPa ESE 11.3 km/h 22.5 km/h 46 % 0.0 mm
10:17 13.7 °C 2.3 °C 1006.3 hPa SE 12.9 km/h 22.5 km/h 46 % 0.0 mm
10:22 14.0 °C 2.2 °C 1006.3 hPa SE 11.3 km/h 22.5 km/h 45 % 0.0 mm
10:32 14.4 °C 3.2 °C 1006.0 hPa East 8.0 km/h 19.3 km/h 47 % 0.0 mm
10:42 14.9 °C 3.1 °C 1006.3 hPa SE 8.0 km/h 19.3 km/h 45 % 0.0 mm
10:47 15.1 °C 3.3 °C 1006.0 hPa East 12.9 km/h 19.3 km/h 45 % 0.0 mm
10:52 15.4 °C 2.9 °C 1006.0 hPa SSE 4.8 km/h 19.3 km/h 43 % 0.0 mm
10:57 15.7 °C 3.8 °C 1006.0 hPa SSE 3.2 km/h 19.3 km/h 45 % 0.0 mm
11:02 15.6 °C 3.4 °C 1006.0 hPa SW 11.3 km/h 19.3 km/h 44 % 0.0 mm
11:12 15.7 °C 3.5 °C 1005.6 hPa ESE 14.5 km/h 20.9 km/h 44 % 0.0 mm
11:17 15.7 °C 3.8 °C 1005.6 hPa SE 16.1 km/h 20.9 km/h 45 % 0.0 mm
11:22 15.7 °C 3.5 °C 1005.6 hPa SSE 6.4 km/h 27.4 km/h 44 % 0.0 mm
11:32 16.4 °C 4.7 °C 1005.6 hPa South 8.0 km/h 22.5 km/h 46 % 0.0 mm
11:37 16.7 °C 4.1 °C 1005.3 hPa SE 6.4 km/h 22.5 km/h 43 % 0.0 mm
11:42 16.9 °C 4.2 °C 1005.3 hPa SE 6.4 km/h 22.5 km/h 43 % 0.0 mm
11:52 17.0 °C 4.3 °C 1005.0 hPa ESE 11.3 km/h 25.7 km/h 43 % 0.0 mm
11:57 17.4 °C 4.7 °C 1005.0 hPa South 6.4 km/h 25.7 km/h 43 % 0.0 mm
12:02 17.3 °C 4.9 °C 1005.0 hPa SSW 6.4 km/h 22.5 km/h 44 % 0.0 mm
12:12 17.3 °C 5.3 °C 1005.0 hPa ESE 9.7 km/h 25.7 km/h 45 % 0.0 mm
12:17 17.7 °C 5.3 °C 1004.6 hPa SE 14.5 km/h 25.7 km/h 44 % 0.0 mm
12:22 17.5 °C 5.4 °C 1004.6 hPa East 11.3 km/h 25.7 km/h 45 % 0.0 mm
12:32 17.9 °C 5.8 °C 1004.6 hPa SE 17.7 km/h 27.4 km/h 45 % 0.0 mm
12:37 17.9 °C 6.1 °C 1004.6 hPa ESE 19.3 km/h 27.4 km/h 46 % 0.0 mm
12:42 18.1 °C 6.0 °C 1004.3 hPa SW 4.8 km/h 27.4 km/h 45 % 0.0 mm
12:47 18.3 °C 6.5 °C 1004.3 hPa East 12.9 km/h 27.4 km/h 46 % 0.0 mm
12:52 18.2 °C 6.4 °C 1004.3 hPa SE 17.7 km/h 32.2 km/h 46 % 0.0 mm
13:02 17.7 °C 6.2 °C 1004.3 hPa South 12.9 km/h 32.2 km/h 47 % 0.0 mm
13:12 17.6 °C 6.5 °C 1004.3 hPa South 14.5 km/h 25.7 km/h 48 % 0.0 mm
13:17 17.6 °C 6.8 °C 1003.9 hPa SE 8.0 km/h 25.7 km/h 49 % 0.0 mm
13:22 17.6 °C 6.8 °C 1003.9 hPa SE 8.0 km/h 25.7 km/h 49 % 0.0 mm
13:32 17.2 °C 6.7 °C 1004.3 hPa SSE 3.2 km/h 25.7 km/h 50 % 0.0 mm
13:37 17.1 °C 6.6 °C 1004.3 hPa East 14.5 km/h 25.7 km/h 50 % 0.0 mm
13:42 16.8 °C 6.9 °C 1003.9 hPa SSE 14.5 km/h 25.7 km/h 52 % 0.0 mm
13:47 16.6 °C 7.5 °C 1004.3 hPa South 8.0 km/h 25.7 km/h 55 % 0.0 mm
13:52 16.4 °C 7.9 °C 1004.3 hPa SE 11.3 km/h 20.9 km/h 57 % 0.0 mm
13:57 16.3 °C 7.8 °C 1003.9 hPa South 4.8 km/h 20.9 km/h 57 % 0.0 mm
14:02 16.3 °C 8.0 °C 1003.9 hPa SSE 3.2 km/h 20.9 km/h 58 % 0.0 mm
14:12 16.3 °C 8.5 °C 1003.6 hPa ESE 11.3 km/h 17.7 km/h 60 % 0.0 mm
14:17 16.3 °C 9.2 °C 1003.6 hPa ESE 6.4 km/h 12.9 km/h 63 % 0.0 mm
14:22 16.4 °C 9.3 °C 1003.6 hPa East 3.2 km/h 12.9 km/h 63 % 0.0 mm
14:27 16.4 °C 8.6 °C 1003.3 hPa SE 4.8 km/h 11.3 km/h 60 % 0.0 mm
14:32 16.4 °C 9.3 °C 1002.9 hPa East 8.0 km/h 12.9 km/h 63 % 0.0 mm
14:42 16.4 °C 8.9 °C 1002.9 hPa ESE 3.2 km/h 12.9 km/h 61 % 0.0 mm
14:47 16.6 °C 9.0 °C 1002.9 hPa East 6.4 km/h 16.1 km/h 61 % 0.0 mm
14:52 16.9 °C 9.1 °C 1002.9 hPa SE 11.3 km/h 17.7 km/h 60 % 0.0 mm
14:57 16.8 °C 9.0 °C 1002.9 hPa SE 8.0 km/h 19.3 km/h 60 % 0.0 mm
15:02 16.8 °C 8.7 °C 1002.9 hPa ESE 4.8 km/h 19.3 km/h 59 % 0.0 mm
15:12 16.8 °C 9.2 °C 1002.6 hPa ENE 4.8 km/h 19.3 km/h 61 % 0.0 mm
15:17 16.9 °C 9.1 °C 1002.3 hPa ESE 4.8 km/h 19.3 km/h 60 % 0.0 mm
15:22 16.9 °C 9.3 °C 1002.3 hPa SE 4.8 km/h 19.3 km/h 61 % 0.0 mm
15:32 16.7 °C 9.1 °C 1002.3 hPa East 3.2 km/h 17.7 km/h 61 % 0.0 mm
15:42 16.7 °C 8.9 °C 1001.9 hPa ENE 3.2 km/h 20.9 km/h 60 % 0.0 mm
15:52 16.9 °C 9.1 °C 1001.6 hPa SSE 4.8 km/h 19.3 km/h 60 % 0.0 mm
16:02 17.1 °C 8.8 °C 1001.6 hPa SSE 11.3 km/h 27.4 km/h 58 % 0.0 mm
16:12 17.6 °C 8.7 °C 1001.2 hPa ESE 16.1 km/h 27.4 km/h 56 % 0.0 mm
16:17 17.6 °C 8.2 °C 1001.2 hPa SE 22.5 km/h 27.4 km/h 54 % 0.0 mm
16:22 17.7 °C 8.0 °C 1001.2 hPa SSW 17.7 km/h 27.4 km/h 53 % 0.0 mm
16:32 18.0 °C 8.3 °C 1000.9 hPa SE 11.3 km/h 38.6 km/h 53 % 0.0 mm
16:37 18.2 °C 8.2 °C 1000.9 hPa ESE 14.5 km/h 38.6 km/h 52 % 0.0 mm
16:47 18.3 °C 8.0 °C 1000.9 hPa East 9.7 km/h 25.7 km/h 51 % 0.0 mm
16:52 18.2 °C 7.9 °C 1000.6 hPa SW 9.7 km/h 29.0 km/h 51 % 0.0 mm
16:57 18.2 °C 7.9 °C 1000.6 hPa SE 16.1 km/h 35.4 km/h 51 % 0.0 mm
17:02 18.1 °C 7.8 °C 1000.6 hPa SSW 20.9 km/h 35.4 km/h 51 % 0.0 mm
17:07 18.1 °C 7.8 °C 1000.6 hPa East 19.3 km/h 37.0 km/h 51 % 0.0 mm
17:12 18.0 °C 8.0 °C 1000.9 hPa SSW 12.9 km/h 37.0 km/h 52 % 0.0 mm
17:17 18.0 °C 8.0 °C 1000.9 hPa SE 16.1 km/h 37.0 km/h 52 % 0.0 mm
17:22 17.9 °C 8.2 °C 1000.9 hPa SW 8.0 km/h 29.0 km/h 53 % 0.0 mm
17:27 17.7 °C 8.5 °C 1000.9 hPa South 19.3 km/h 25.7 km/h 55 % 0.0 mm
17:32 15.9 °C 9.3 °C 1001.9 hPa SW 27.4 km/h 27.4 km/h 65 % 0.0 mm
17:42 11.7 °C 9.6 °C 1002.3 hPa West 35.4 km/h 41.8 km/h 87 % 0.0 mm
17:47 11.1 °C 9.4 °C 1002.6 hPa WSW 11.3 km/h 57.9 km/h 89 % 0.5 mm
17:52 10.9 °C 9.3 °C 1002.6 hPa West 14.5 km/h 57.9 km/h 90 % 2.3 mm
17:57 10.8 °C 9.2 °C 1002.9 hPa West 16.1 km/h 45.1 km/h 90 % 3.3 mm
18:02 10.6 °C 8.9 °C 1002.9 hPa West 33.8 km/h 38.6 km/h 89 % 3.3 mm
18:12 10.2 °C 8.6 °C 1002.9 hPa West 29.0 km/h 40.2 km/h 90 % 3.8 mm
18:17 10.1 °C 8.5 °C 1003.3 hPa WSW 6.4 km/h 40.2 km/h 90 % 4.6 mm
18:22 10.0 °C 8.4 °C 1003.3 hPa West 14.5 km/h 40.2 km/h 90 % 4.6 mm
18:27 9.9 °C 8.5 °C 1003.3 hPa WSW 14.5 km/h 33.8 km/h 91 % 5.1 mm
18:32 9.9 °C 8.5 °C 1003.6 hPa West 12.9 km/h 33.8 km/h 91 % 5.1 mm
18:42 9.8 °C 8.6 °C 1003.6 hPa SW 9.7 km/h 22.5 km/h 92 % 5.8 mm
18:52 9.8 °C 8.7 °C 1003.9 hPa West 6.4 km/h 19.3 km/h 93 % 4.3 mm
18:57 9.7 °C 8.6 °C 1003.9 hPa West 4.8 km/h 17.7 km/h 93 % 4.3 mm
19:02 9.7 °C 8.6 °C 1003.9 hPa WSW 6.4 km/h 14.5 km/h 93 % 4.3 mm
19:12 9.6 °C 8.5 °C 1003.9 hPa WSW 6.4 km/h 14.5 km/h 93 % 4.6 mm
19:22 9.5 °C 8.4 °C 1003.9 hPa SW 8.0 km/h 19.3 km/h 93 % 4.8 mm
19:32 9.4 °C 8.3 °C 1004.3 hPa SW 16.1 km/h 17.7 km/h 93 % 5.1 mm
19:42 9.1 °C 7.9 °C 1004.6 hPa South 17.7 km/h 19.3 km/h 92 % 5.6 mm
19:47 8.9 °C 7.7 °C 1004.6 hPa WSW 6.4 km/h 20.9 km/h 92 % 5.6 mm
19:52 8.7 °C 7.5 °C 1004.6 hPa SW 9.7 km/h 20.9 km/h 92 % 5.1 mm
19:57 8.5 °C 7.3 °C 1005.0 hPa SW 8.0 km/h 19.3 km/h 92 % 4.6 mm
20:02 8.4 °C 7.3 °C 1005.0 hPa WSW 14.5 km/h 22.5 km/h 93 % 4.3 mm
20:12 8.4 °C 7.3 °C 1005.3 hPa SW 4.8 km/h 24.1 km/h 93 % 3.8 mm
20:17 8.3 °C 7.2 °C 1005.6 hPa SW 8.0 km/h 24.1 km/h 93 % 3.3 mm
20:22 8.3 °C 7.2 °C 1006.0 hPa South 6.4 km/h 19.3 km/h 93 % 3.3 mm
20:32 8.2 °C 7.3 °C 1006.0 hPa SSW 12.9 km/h 19.3 km/h 94 % 3.0 mm
20:42 8.2 °C 7.3 °C 1006.0 hPa SW 11.3 km/h 17.7 km/h 94 % 2.5 mm
20:47 8.1 °C 7.2 °C 1006.3 hPa SSW 4.8 km/h 17.7 km/h 94 % 2.3 mm
20:52 8.1 °C 7.2 °C 1006.0 hPa SSW 6.4 km/h 14.5 km/h 94 % 2.3 mm
20:57 8.1 °C 7.2 °C 1006.3 hPa South 4.8 km/h 14.5 km/h 94 % 2.0 mm
21:02 8.1 °C 7.2 °C 1006.3 hPa SW 4.8 km/h 14.5 km/h 94 % 2.0 mm
21:12 8.0 °C 7.1 °C 1006.3 hPa South 8.0 km/h 12.9 km/h 94 % 1.8 mm
21:17 7.9 °C 7.0 °C 1006.3 hPa SSW 1.6 km/h 12.9 km/h 94 % 1.3 mm
21:22 7.9 °C 7.0 °C 1006.3 hPa SSW 3.2 km/h 12.9 km/h 94 % 1.0 mm
21:32 7.9 °C 7.0 °C 1006.3 hPa South 4.8 km/h 9.7 km/h 94 % 0.5 mm
21:42 7.8 °C 6.9 °C 1006.0 hPa SE 3.2 km/h 9.7 km/h 94 % 0.5 mm
21:52 7.7 °C 6.8 °C 1005.6 hPa SSE 1.6 km/h 9.7 km/h 94 % 0.8 mm
21:57 7.7 °C 6.8 °C 1006.0 hPa SW 1.6 km/h 8.0 km/h 94 % 0.5 mm
22:02 7.7 °C 6.8 °C 1006.7 hPa South 4.8 km/h 6.4 km/h 94 % 0.5 mm
22:12 7.7 °C 6.8 °C 1007.3 hPa South 8.0 km/h 14.5 km/h 94 % 0.5 mm
22:17 7.7 °C 6.8 °C 1007.3 hPa SSW 6.4 km/h 16.1 km/h 94 % 0.5 mm
22:22 7.7 °C 6.6 °C 1007.3 hPa SSW 9.7 km/h 17.7 km/h 93 % 0.5 mm
22:32 7.7 °C 6.5 °C 1007.3 hPa SW 14.5 km/h 22.5 km/h 92 % 0.5 mm
22:42 7.7 °C 6.5 °C 1007.7 hPa South 11.3 km/h 22.5 km/h 92 % 0.5 mm
22:47 7.7 °C 6.5 °C 1007.7 hPa SSW 8.0 km/h 24.1 km/h 92 % 0.3 mm
22:52 7.6 °C 6.4 °C 1007.3 hPa SE 11.3 km/h 24.1 km/h 92 % 0.3 mm
22:57 7.6 °C 6.4 °C 1007.3 hPa SW 6.4 km/h 22.5 km/h 92 % 0.3 mm
23:02 7.6 °C 6.4 °C 1007.3 hPa South 8.0 km/h 22.5 km/h 92 % 0.3 mm
23:12 7.5 °C 6.3 °C 1007.3 hPa SW 9.7 km/h 22.5 km/h 92 % 0.3 mm
23:17 7.4 °C 6.0 °C 1007.3 hPa SSW 9.7 km/h 22.5 km/h 91 % 0.3 mm
23:22 7.4 °C 6.0 °C 1007.0 hPa SSW 11.3 km/h 22.5 km/h 91 % 0.3 mm
23:27 7.4 °C 6.0 °C 1007.0 hPa South 12.9 km/h 22.5 km/h 91 % 0.0 mm
23:32 7.3 °C 5.9 °C 1007.0 hPa SW 4.8 km/h 20.9 km/h 91 % 0.0 mm
23:37 7.2 °C 5.8 °C 1007.3 hPa SW 6.4 km/h 19.3 km/h 91 % 0.0 mm
23:42 7.2 °C 5.8 °C 1007.3 hPa SSW 9.7 km/h 19.3 km/h 91 % 0.0 mm
23:52 7.1 °C 5.7 °C 1007.3 hPa SSW 12.9 km/h 17.7 km/h 91 % 0.0 mm
23:57 7.1 °C 5.7 °C 1007.7 hPa SSW 12.9 km/h 16.1 km/h 91 % 0.0 mm
Meteo18
Compliments of Weather Underground - 4 mb

Script developed by  Jim McMurry - jmcmurry@mwt.net Adapted for the template by  Wim van der Kuil - Leuven-Template.eu

You find our weather info also at:

European Weather Network

Weather Underground

Equipment we use:

Weather-station
Davis Vue

Weather-program
Meteohub

Weather-server
Raspberry PI 2 B+

Provider
1 and 1

Davis Vue

Meteohub

Raspberry PI 2 B+

1 and 1